Orchid Ace — 7JDE — position and weather

sailwx.info

Track history (hours):
 
Tides and Currents Weather Stations Pressure Air Temp Water Temp Dewpoint Dewpoint Depression Visibility Wind Speed Wind Dir Waves Ship Positions

Orchid Ace

Last reported at 2016-Jul-26 15:29 UTC. Time now 2016-Jul-27 01:54 UTC.
Position N 49°40' W 004°24'.

Length 200 m; draft 8.5 m.

Type: Cargo ship. MMSI: 432651000.

Date/timePositionNaut miles runAvg speedWind from/ knotsBaromVisibWave heightAir tempDewpointWater temp
2016-Jul-26 15:29N 49°40' W 004°24'2018.0
2016-Jul-26 14:22N 49°55' W 004°02'1417.4
2016-Jul-26 13:34N 50°03' W 003°44'1817.5
2016-Jul-26 12:33N 50°17' W 003°28'9 9.3
2016-Jul-26 11:33N 50°25' W 003°22'1616.2
2016-Jul-26 10:33N 50°26' W 002°56'1716.7
2016-Jul-26 09:33N 50°26' W 002°30'2217.4
2016-Jul-26 08:19N 50°27' W 001°56'1718.8
2016-Jul-26 07:25N 50°30' W 001°30'1719.8
2016-Jul-26 06:33N 50°30' W 001°03'1919.4
2016-Jul-26 05:33N 50°31' W 000°33'1818.4
2016-Jul-26 04:33N 50°32' W 000°04'1817.4
2016-Jul-26 03:32N 50°36' E 000°23'3216.3
2016-Jul-26 01:33N 50°52' E 001°08'1817.6
2016-Jul-26 00:33N 51°02' E 001°30'2019.6
2016-Jul-25 23:33N 51°17' E 001°51'1413.9
2016-Jul-25 22:34N 51°21' E 002°12'1515.1
2016-Jul-25 21:33N 51°21' E 002°36'1 0.9
2016-Jul-25 20:33N 51°21' E 002°37'1 1.0
2016-Jul-25 19:33N 51°21' E 002°38'5 4.9
2016-Jul-25 18:33N 51°22' E 002°46'1414.2
2016-Jul-25 17:34N 51°24' E 003°08'5 4.7
2016-Jul-25 16:32N 51°20' E 003°13'1 0.7
2016-Jul-25 15:32N 51°19' E 003°13'0 0.0
2016-Jul-25 14:32N 51°19' E 003°13'0 0.0
2016-Jul-25 13:32N 51°19' E 003°13'0 0.0
2016-Jul-25 12:32N 51°19' E 003°13'0 0.0
2016-Jul-25 11:29N 51°19' E 003°13'0 0.0
2016-Jul-25 10:29N 51°19' E 003°13'0 0.0
2016-Jul-25 09:32N 51°19' E 003°13'0 0.0
2016-Jul-25 08:32N 51°19' E 003°13'0 0.0
2016-Jul-25 07:32N 51°19' E 003°13'0 0.0
2016-Jul-25 06:29N 51°19' E 003°13'1 0.6
2016-Jul-25 05:33N 51°20' E 003°13'0 0.5
2016-Jul-25 04:34N 51°20' E 003°13'5 4.9
2016-Jul-25 03:33N 51°24' E 003°07'10 9.8
2016-Jul-25 02:33N 51°22' E 002°52'7 6.8
2016-Jul-25 01:33N 51°25' E 002°42'5 4.5
2016-Jul-25 00:33N 51°29' E 002°41'0 0.3
2016-Jul-24 23:33N 51°29' E 002°41'3 3.0
2016-Jul-24 22:34N 51°32' E 002°42'3514.6
2016-Jul-24 20:08N 52°06' E 002°55'814.2
2016-Jul-24 19:33N 52°13' E 003°04'1413.9
2016-Jul-24 18:33N 52°25' E 003°15'1413.5
2016-Jul-24 17:33N 52°36' E 003°29'1313.0
2016-Jul-24 16:33N 52°46' E 003°42'1313.3
2016-Jul-24 15:33N 52°56' E 003°57'1514.7
2016-Jul-24 14:33N 53°06' E 004°15'1515.2
2016-Jul-24 13:32N 53°17' E 004°31'1514.7
2016-Jul-24 12:31N 53°30' E 004°46'1515.9
2016-Jul-24 11:33N 53°36' E 005°09'1515.5
2016-Jul-24 10:33N 53°40' E 005°34'1413.8
2016-Jul-24 09:33N 53°44' E 005°57'1313.3
2016-Jul-24 08:33N 53°48' E 006°18'1414.4
2016-Jul-24 07:33N 53°52' E 006°42'1515.4
2016-Jul-24 06:33N 53°56' E 007°07'1515.4
2016-Jul-24 05:33N 53°60' E 007°32'1313.0
2016-Jul-24 04:33N 53°53' E 007°51'1616.0
2016-Jul-24 03:34N 53°44' E 008°14'1414.1
2016-Jul-24 02:33N 53°35' E 008°32'1 1.0
2016-Jul-24 01:32N 53°35' E 008°33'0 0.0
2016-Jul-24 00:32N 53°35' E 008°33'0 0.0
2016-Jul-23 23:32N 53°35' E 008°33'0 0.0
2016-Jul-23 22:32N 53°35' E 008°33'0 0.0
2016-Jul-23 21:32N 53°35' E 008°33'0 0.0
2016-Jul-23 20:29N 53°35' E 008°33'0 0.0
2016-Jul-23 19:32N 53°35' E 008°33'0 0.0
2016-Jul-23 18:32N 53°35' E 008°33'0 0.0
2016-Jul-23 17:29N 53°35' E 008°33'0 0.0
2016-Jul-23 16:32N 53°35' E 008°33'0 0.0
2016-Jul-23 15:32N 53°35' E 008°33'0 0.0
2016-Jul-23 14:29N 53°35' E 008°33'0 0.0
2016-Jul-23 13:32N 53°35' E 008°33'0 0.0
2016-Jul-23 12:32N 53°35' E 008°33'0 0.0
2016-Jul-23 11:32N 53°35' E 008°33'0 0.0
2016-Jul-23 10:32N 53°35' E 008°33'0 0.0
2016-Jul-23 09:29N 53°35' E 008°33'0 0.0
2016-Jul-23 08:32N 53°35' E 008°33'0 0.4
2016-Jul-23 07:33N 53°34' E 008°33'1 0.8
2016-Jul-23 06:32N 53°33' E 008°33'0 0.0
2016-Jul-23 04:33N 53°33' E 008°33'2 1.7
2016-Jul-23 03:33N 53°35' E 008°32'1111.3
2016-Jul-23 02:33N 53°43' E 008°18'1514.8
2016-Jul-23 01:34N 53°51' E 007°58'7 7.5
2016-Jul-23 00:33N 53°54' E 007°46'0 0.2
2016-Jul-22 23:31N 53°55' E 007°47'0 0.0
2016-Jul-22 22:31N 53°55' E 007°47'0 0.0
2016-Jul-22 21:28N 53°55' E 007°46'0 0.0
2016-Jul-22 20:31N 53°55' E 007°46'0 0.0
2016-Jul-22 19:28N 53°55' E 007°46'0 0.0
2016-Jul-22 18:31N 53°55' E 007°46'0 0.0
2016-Jul-22 17:28N 53°55' E 007°46'0 0.0
2016-Jul-22 16:28N 53°55' E 007°46'0 0.0
2016-Jul-22 15:31N 53°55' E 007°46'0 0.0
2016-Jul-22 14:31N 53°55' E 007°46'0 0.0
2016-Jul-22 13:31N 53°55' E 007°46'0 0.0
2016-Jul-22 12:31N 53°55' E 007°47'0 0.4
2016-Jul-22 11:33N 53°54' E 007°47'1111.5
2016-Jul-22 10:33N 53°53' E 007°27'1515.4
2016-Jul-22 09:33N 53°50' E 007°02'1615.5
2016-Jul-22 08:33N 53°47' E 006°36'1515.1
2016-Jul-22 07:33N 53°43' E 006°11'2914.6
2016-Jul-22 05:33N 53°33' E 005°25'1414.1
2016-Jul-22 04:33N 53°28' E 005°02'1313.0
2016-Jul-22 03:33N 53°24' E 004°42'1413.5
2016-Jul-22 02:32N 53°12' E 004°31'1313.4
2016-Jul-22 01:33N 53°00' E 004°20'1313.4
2016-Jul-22 00:33N 52°48' E 004°11'1313.3
2016-Jul-21 23:33N 52°38' E 003°56'1313.1
2016-Jul-21 22:33N 52°28' E 003°43'1312.9
2016-Jul-21 21:33N 52°17' E 003°33'1312.7
2016-Jul-21 20:33N 52°05' E 003°26'1313.2
2016-Jul-21 19:33N 51°52' E 003°21'1010.1
2016-Jul-21 18:33N 51°42' E 003°17'1312.6
2016-Jul-21 17:33N 51°31' E 003°26'1211.6
2016-Jul-21 16:34N 51°24' E 003°42'1010.4
2016-Jul-21 15:33N 51°26' E 003°58'10 9.8
2016-Jul-21 14:34N 51°23' E 004°13'6 5.9
2016-Jul-21 13:33N 51°17' E 004°15'0 0.3
2016-Jul-21 12:34N 51°17' E 004°15'1 0.6
2016-Jul-21 11:33N 51°16' E 004°14'0 0.0
2016-Jul-21 10:33N 51°16' E 004°14'0 0.0
2016-Jul-21 09:33N 51°16' E 004°14'0 0.0
2016-Jul-21 08:33N 51°16' E 004°14'0 0.0
2016-Jul-21 07:33N 51°16' E 004°14'0 0.0
2016-Jul-21 06:33N 51°16' E 004°14'0 0.0
2016-Jul-21 05:33N 51°16' E 004°14'0 0.0
2016-Jul-21 04:33N 51°16' E 004°14'0 0.0
2016-Jul-21 03:33N 51°16' E 004°14'0 0.0
2016-Jul-21 02:33N 51°16' E 004°14'0 0.0
2016-Jul-21 01:33N 51°16' E 004°14'0 0.0
2016-Jul-21 00:33N 51°16' E 004°14'0 0.0
2016-Jul-20 23:33N 51°16' E 004°14'0 0.0
2016-Jul-20 22:33N 51°16' E 004°14'0 0.0
2016-Jul-20 21:33N 51°16' E 004°14'0 0.0
2016-Jul-20 20:33N 51°16' E 004°14'0 0.0
2016-Jul-20 19:33N 51°16' E 004°14'0 0.0
2016-Jul-20 18:33N 51°16' E 004°14'0 0.0
2016-Jul-20 17:33N 51°16' E 004°14'0 0.0
2016-Jul-20 16:33N 51°16' E 004°14'0 0.0
2016-Jul-20 15:33N 51°16' E 004°14'0 0.0
2016-Jul-20 14:32N 51°16' E 004°14'0 0.0
2016-Jul-20 13:33N 51°16' E 004°14'0 0.0
2016-Jul-20 12:33N 51°16' E 004°14'0 0.0
2016-Jul-20 11:33N 51°16' E 004°14'0 0.0
2016-Jul-20 10:32N 51°16' E 004°14'0 0.0
2016-Jul-20 09:33N 51°16' E 004°14'0 0.0
2016-Jul-20 08:32N 51°16' E 004°14'0 0.0
2016-Jul-20 07:32N 51°16' E 004°14'0 0.0
2016-Jul-20 06:29N 51°16' E 004°14'0 0.0
2016-Jul-20 05:32N 51°16' E 004°14'0 0.0
2016-Jul-20 04:33N 51°16' E 004°14'0 0.0
2016-Jul-20 03:32N 51°16' E 004°14'0 0.0
2016-Jul-20 02:33N 51°16' E 004°14'0 0.0
2016-Jul-20 01:32N 51°16' E 004°14'0 0.0
2016-Jul-20 00:32N 51°16' E 004°14'0 0.0
2016-Jul-19 23:32N 51°16' E 004°14'0 0.0
2016-Jul-19 22:33N 51°16' E 004°14'1 0.8
2016-Jul-19 21:34N 51°17' E 004°15'1 1.0
2016-Jul-19 20:34N 51°18' E 004°16'5 4.7
2016-Jul-19 19:34N 51°22' E 004°13'7 6.8
2016-Jul-19 18:33N 51°23' E 004°02'7 6.5
2016-Jul-19 17:33N 51°21' E 003°52'10 9.6
2016-Jul-19 16:33N 51°26' E 003°40'8 8.5
2016-Jul-19 15:33N 51°25' E 003°27'1313.3
2016-Jul-19 14:34N 51°24' E 003°05'1414.1
2016-Jul-19 13:33N 51°22' E 002°43'8 7.7
2016-Jul-19 12:33N 51°22' E 002°31'1515.2
2016-Jul-19 11:34N 51°15' E 002°10'1615.6
2016-Jul-19 10:34N 51°07' E 001°48'1615.7
2016-Jul-19 09:34N 50°55' E 001°31'1414.0
2016-Jul-19 08:33N 50°43' E 001°21'5614.1
2016-Jul-19 04:33N 50°18' E 000°02'1212.3
2016-Jul-19 03:33N 50°19' W 000°18'1211.8
2016-Jul-19 02:33N 50°19' W 000°36'1111.2
2016-Jul-19 01:33N 50°19' W 000°54'1110.6
2016-Jul-19 00:34N 50°19' W 001°10'1110.9
2016-Jul-18 23:33N 50°21' W 001°27'1212.2
2016-Jul-18 22:33N 50°22' W 001°46'1413.8
2016-Jul-18 21:34N 50°22' W 002°08'1514.9
2016-Jul-18 20:33N 50°23' W 002°31'1514.9
2016-Jul-18 19:34N 50°24' W 002°54'1414.3
2016-Jul-18 18:33N 50°25' W 003°17'7 6.6
2016-Jul-18 17:33N 50°22' W 003°26'9 8.8
2016-Jul-18 16:33N 50°14' W 003°28'8 7.9
2016-Jul-18 15:34N 50°08' W 003°36'1413.8
2016-Jul-18 14:34N 50°04' W 003°57'1413.8
2016-Jul-18 13:34N 50°00' W 004°17'1413.7
2016-Jul-18 12:34N 49°55' W 004°37'1716.6
2016-Jul-18 11:34N 49°51' W 005°02'1313.1
2016-Jul-18 10:33N 49°48' W 005°22'1515.1
2016-Jul-18 09:34N 49°44' W 005°45'1716.7
2016-Jul-18 08:32N 49°40' W 006°10'1616.6
2016-Jul-18 07:33N 49°38' W 006°35'1717.0
2016-Jul-18 06:34N 49°35' W 007°01'1917.3
2016-Jul-18 05:29N 49°30' W 007°28'1617.3
2016-Jul-18 04:33N 49°26' W 007°53'1817.9
2016-Jul-18 03:33N 49°21' W 008°19'1818.1
2016-Jul-18 02:33N 49°17' W 008°46'1818.1
2016-Jul-18 01:33N 49°13' W 009°13'1818.0
2016-Jul-18 00:33N 49°08' W 009°40'1817.8
2016-Jul-17 23:33N 49°04' W 010°06'1817.5
2016-Jul-17 22:34N 48°60' W 010°32'3817.7
2016-Jul-17 20:26N 48°50' W 011°27'8617.6
2016-Jul-17 15:34N 48°29' W 013°33'1917.7
2016-Jul-17 14:29N 48°24' W 014°01'  
Track history (hours):
 
Tides and Currents Weather Stations Pressure Air Temp Water Temp Dewpoint Dewpoint Depression Visibility Wind Speed Wind Dir Waves Ship Positions

Orchid Ace

Last reported at 2016-Jul-26 15:29 UTC. Time now 2016-Jul-27 01:54 UTC.
Position N 49°40' W 004°24'.

Length 200 m; draft 8.5 m.

Type: Cargo ship. MMSI: 432651000.

Date/timePositionNaut miles runAvg speedWind from/ knotsBaromVisibWave heightAir tempDewpointWater temp
2016-Jul-26 15:29N 49°40' W 004°24'2018.0
2016-Jul-26 14:22N 49°55' W 004°02'1417.4
2016-Jul-26 13:34N 50°03' W 003°44'1817.5
2016-Jul-26 12:33N 50°17' W 003°28'9 9.3
2016-Jul-26 11:33N 50°25' W 003°22'1616.2
2016-Jul-26 10:33N 50°26' W 002°56'1716.7
2016-Jul-26 09:33N 50°26' W 002°30'2217.4
2016-Jul-26 08:19N 50°27' W 001°56'1718.8
2016-Jul-26 07:25N 50°30' W 001°30'1719.8
2016-Jul-26 06:33N 50°30' W 001°03'1919.4
2016-Jul-26 05:33N 50°31' W 000°33'1818.4
2016-Jul-26 04:33N 50°32' W 000°04'1817.4
2016-Jul-26 03:32N 50°36' E 000°23'3216.3
2016-Jul-26 01:33N 50°52' E 001°08'1817.6
2016-Jul-26 00:33N 51°02' E 001°30'2019.6
2016-Jul-25 23:33N 51°17' E 001°51'1413.9
2016-Jul-25 22:34N 51°21' E 002°12'1515.1
2016-Jul-25 21:33N 51°21' E 002°36'1 0.9
2016-Jul-25 20:33N 51°21' E 002°37'1 1.0
2016-Jul-25 19:33N 51°21' E 002°38'5 4.9
2016-Jul-25 18:33N 51°22' E 002°46'1414.2
2016-Jul-25 17:34N 51°24' E 003°08'5 4.7
2016-Jul-25 16:32N 51°20' E 003°13'1 0.7
2016-Jul-25 15:32N 51°19' E 003°13'0 0.0
2016-Jul-25 14:32N 51°19' E 003°13'0 0.0
2016-Jul-25 13:32N 51°19' E 003°13'0 0.0
2016-Jul-25 12:32N 51°19' E 003°13'0 0.0
2016-Jul-25 11:29N 51°19' E 003°13'0 0.0
2016-Jul-25 10:29N 51°19' E 003°13'0 0.0
2016-Jul-25 09:32N 51°19' E 003°13'0 0.0
2016-Jul-25 08:32N 51°19' E 003°13'0 0.0
2016-Jul-25 07:32N 51°19' E 003°13'0 0.0
2016-Jul-25 06:29N 51°19' E 003°13'1 0.6
2016-Jul-25 05:33N 51°20' E 003°13'0 0.5
2016-Jul-25 04:34N 51°20' E 003°13'5 4.9
2016-Jul-25 03:33N 51°24' E 003°07'10 9.8
2016-Jul-25 02:33N 51°22' E 002°52'7 6.8
2016-Jul-25 01:33N 51°25' E 002°42'5 4.5
2016-Jul-25 00:33N 51°29' E 002°41'0 0.3
2016-Jul-24 23:33N 51°29' E 002°41'3 3.0
2016-Jul-24 22:34N 51°32' E 002°42'3514.6
2016-Jul-24 20:08N 52°06' E 002°55'814.2
2016-Jul-24 19:33N 52°13' E 003°04'1413.9
2016-Jul-24 18:33N 52°25' E 003°15'1413.5
2016-Jul-24 17:33N 52°36' E 003°29'1313.0
2016-Jul-24 16:33N 52°46' E 003°42'1313.3
2016-Jul-24 15:33N 52°56' E 003°57'1514.7
2016-Jul-24 14:33N 53°06' E 004°15'1515.2
2016-Jul-24 13:32N 53°17' E 004°31'1514.7
2016-Jul-24 12:31N 53°30' E 004°46'1515.9
2016-Jul-24 11:33N 53°36' E 005°09'1515.5
2016-Jul-24 10:33N 53°40' E 005°34'1413.8
2016-Jul-24 09:33N 53°44' E 005°57'1313.3
2016-Jul-24 08:33N 53°48' E 006°18'1414.4
2016-Jul-24 07:33N 53°52' E 006°42'1515.4
2016-Jul-24 06:33N 53°56' E 007°07'1515.4
2016-Jul-24 05:33N 53°60' E 007°32'1313.0
2016-Jul-24 04:33N 53°53' E 007°51'1616.0
2016-Jul-24 03:34N 53°44' E 008°14'1414.1
2016-Jul-24 02:33N 53°35' E 008°32'1 1.0
2016-Jul-24 01:32N 53°35' E 008°33'0 0.0
2016-Jul-24 00:32N 53°35' E 008°33'0 0.0
2016-Jul-23 23:32N 53°35' E 008°33'0 0.0
2016-Jul-23 22:32N 53°35' E 008°33'0 0.0
2016-Jul-23 21:32N 53°35' E 008°33'0 0.0
2016-Jul-23 20:29N 53°35' E 008°33'0 0.0
2016-Jul-23 19:32N 53°35' E 008°33'0 0.0
2016-Jul-23 18:32N 53°35' E 008°33'0 0.0
2016-Jul-23 17:29N 53°35' E 008°33'0 0.0
2016-Jul-23 16:32N 53°35' E 008°33'0 0.0
2016-Jul-23 15:32N 53°35' E 008°33'0 0.0
2016-Jul-23 14:29N 53°35' E 008°33'0 0.0
2016-Jul-23 13:32N 53°35' E 008°33'0 0.0
2016-Jul-23 12:32N 53°35' E 008°33'0 0.0
2016-Jul-23 11:32N 53°35' E 008°33'0 0.0
2016-Jul-23 10:32N 53°35' E 008°33'0 0.0
2016-Jul-23 09:29N 53°35' E 008°33'0 0.0
2016-Jul-23 08:32N 53°35' E 008°33'0 0.4
2016-Jul-23 07:33N 53°34' E 008°33'1 0.8
2016-Jul-23 06:32N 53°33' E 008°33'0 0.0
2016-Jul-23 04:33N 53°33' E 008°33'2 1.7
2016-Jul-23 03:33N 53°35' E 008°32'1111.3
2016-Jul-23 02:33N 53°43' E 008°18'1514.8
2016-Jul-23 01:34N 53°51' E 007°58'7 7.5
2016-Jul-23 00:33N 53°54' E 007°46'0 0.2
2016-Jul-22 23:31N 53°55' E 007°47'0 0.0
2016-Jul-22 22:31N 53°55' E 007°47'0 0.0
2016-Jul-22 21:28N 53°55' E 007°46'0 0.0
2016-Jul-22 20:31N 53°55' E 007°46'0 0.0
2016-Jul-22 19:28N 53°55' E 007°46'0 0.0
2016-Jul-22 18:31N 53°55' E 007°46'0 0.0
2016-Jul-22 17:28N 53°55' E 007°46'0 0.0
2016-Jul-22 16:28N 53°55' E 007°46'0 0.0
2016-Jul-22 15:31N 53°55' E 007°46'0 0.0
2016-Jul-22 14:31N 53°55' E 007°46'0 0.0
2016-Jul-22 13:31N 53°55' E 007°46'0 0.0
2016-Jul-22 12:31N 53°55' E 007°47'0 0.4
2016-Jul-22 11:33N 53°54' E 007°47'1111.5
2016-Jul-22 10:33N 53°53' E 007°27'1515.4
2016-Jul-22 09:33N 53°50' E 007°02'1615.5
2016-Jul-22 08:33N 53°47' E 006°36'1515.1
2016-Jul-22 07:33N 53°43' E 006°11'2914.6
2016-Jul-22 05:33N 53°33' E 005°25'1414.1
2016-Jul-22 04:33N 53°28' E 005°02'1313.0
2016-Jul-22 03:33N 53°24' E 004°42'1413.5
2016-Jul-22 02:32N 53°12' E 004°31'1313.4
2016-Jul-22 01:33N 53°00' E 004°20'1313.4
2016-Jul-22 00:33N 52°48' E 004°11'1313.3
2016-Jul-21 23:33N 52°38' E 003°56'1313.1
2016-Jul-21 22:33N 52°28' E 003°43'1312.9
2016-Jul-21 21:33N 52°17' E 003°33'1312.7
2016-Jul-21 20:33N 52°05' E 003°26'1313.2
2016-Jul-21 19:33N 51°52' E 003°21'1010.1
2016-Jul-21 18:33N 51°42' E 003°17'1312.6
2016-Jul-21 17:33N 51°31' E 003°26'1211.6
2016-Jul-21 16:34N 51°24' E 003°42'1010.4
2016-Jul-21 15:33N 51°26' E 003°58'10 9.8
2016-Jul-21 14:34N 51°23' E 004°13'6 5.9
2016-Jul-21 13:33N 51°17' E 004°15'0 0.3
2016-Jul-21 12:34N 51°17' E 004°15'1 0.6
2016-Jul-21 11:33N 51°16' E 004°14'0 0.0
2016-Jul-21 10:33N 51°16' E 004°14'0 0.0
2016-Jul-21 09:33N 51°16' E 004°14'0 0.0
2016-Jul-21 08:33N 51°16' E 004°14'0 0.0
2016-Jul-21 07:33N 51°16' E 004°14'0 0.0
2016-Jul-21 06:33N 51°16' E 004°14'0 0.0
2016-Jul-21 05:33N 51°16' E 004°14'0 0.0
2016-Jul-21 04:33N 51°16' E 004°14'0 0.0
2016-Jul-21 03:33N 51°16' E 004°14'0 0.0
2016-Jul-21 02:33N 51°16' E 004°14'0 0.0
2016-Jul-21 01:33N 51°16' E 004°14'0 0.0
2016-Jul-21 00:33N 51°16' E 004°14'0 0.0
2016-Jul-20 23:33N 51°16' E 004°14'0 0.0
2016-Jul-20 22:33N 51°16' E 004°14'0 0.0
2016-Jul-20 21:33N 51°16' E 004°14'0 0.0
2016-Jul-20 20:33N 51°16' E 004°14'0 0.0
2016-Jul-20 19:33N 51°16' E 004°14'0 0.0
2016-Jul-20 18:33N 51°16' E 004°14'0 0.0
2016-Jul-20 17:33N 51°16' E 004°14'0 0.0
2016-Jul-20 16:33N 51°16' E 004°14'0 0.0
2016-Jul-20 15:33N 51°16' E 004°14'0 0.0
2016-Jul-20 14:32N 51°16' E 004°14'0 0.0
2016-Jul-20 13:33N 51°16' E 004°14'0 0.0
2016-Jul-20 12:33N 51°16' E 004°14'0 0.0
2016-Jul-20 11:33N 51°16' E 004°14'0 0.0
2016-Jul-20 10:32N 51°16' E 004°14'0 0.0
2016-Jul-20 09:33N 51°16' E 004°14'0 0.0
2016-Jul-20 08:32N 51°16' E 004°14'0 0.0
2016-Jul-20 07:32N 51°16' E 004°14'0 0.0
2016-Jul-20 06:29N 51°16' E 004°14'0 0.0
2016-Jul-20 05:32N 51°16' E 004°14'0 0.0
2016-Jul-20 04:33N 51°16' E 004°14'0 0.0
2016-Jul-20 03:32N 51°16' E 004°14'0 0.0
2016-Jul-20 02:33N 51°16' E 004°14'0 0.0
2016-Jul-20 01:32N 51°16' E 004°14'0 0.0
2016-Jul-20 00:32N 51°16' E 004°14'0 0.0
2016-Jul-19 23:32N 51°16' E 004°14'0 0.0
2016-Jul-19 22:33N 51°16' E 004°14'1 0.8
2016-Jul-19 21:34N 51°17' E 004°15'1 1.0
2016-Jul-19 20:34N 51°18' E 004°16'5 4.7
2016-Jul-19 19:34N 51°22' E 004°13'7 6.8
2016-Jul-19 18:33N 51°23' E 004°02'7 6.5
2016-Jul-19 17:33N 51°21' E 003°52'10 9.6
2016-Jul-19 16:33N 51°26' E 003°40'8 8.5
2016-Jul-19 15:33N 51°25' E 003°27'1313.3
2016-Jul-19 14:34N 51°24' E 003°05'1414.1
2016-Jul-19 13:33N 51°22' E 002°43'8 7.7
2016-Jul-19 12:33N 51°22' E 002°31'1515.2
2016-Jul-19 11:34N 51°15' E 002°10'1615.6
2016-Jul-19 10:34N 51°07' E 001°48'1615.7
2016-Jul-19 09:34N 50°55' E 001°31'1414.0
2016-Jul-19 08:33N 50°43' E 001°21'5614.1
2016-Jul-19 04:33N 50°18' E 000°02'1212.3
2016-Jul-19 03:33N 50°19' W 000°18'1211.8
2016-Jul-19 02:33N 50°19' W 000°36'1111.2
2016-Jul-19 01:33N 50°19' W 000°54'1110.6
2016-Jul-19 00:34N 50°19' W 001°10'1110.9
2016-Jul-18 23:33N 50°21' W 001°27'1212.2
2016-Jul-18 22:33N 50°22' W 001°46'1413.8
2016-Jul-18 21:34N 50°22' W 002°08'1514.9
2016-Jul-18 20:33N 50°23' W 002°31'1514.9
2016-Jul-18 19:34N 50°24' W 002°54'1414.3
2016-Jul-18 18:33N 50°25' W 003°17'7 6.6
2016-Jul-18 17:33N 50°22' W 003°26'9 8.8
2016-Jul-18 16:33N 50°14' W 003°28'8 7.9
2016-Jul-18 15:34N 50°08' W 003°36'1413.8
2016-Jul-18 14:34N 50°04' W 003°57'1413.8
2016-Jul-18 13:34N 50°00' W 004°17'1413.7
2016-Jul-18 12:34N 49°55' W 004°37'1716.6
2016-Jul-18 11:34N 49°51' W 005°02'1313.1
2016-Jul-18 10:33N 49°48' W 005°22'1515.1
2016-Jul-18 09:34N 49°44' W 005°45'1716.7
2016-Jul-18 08:32N 49°40' W 006°10'1616.6
2016-Jul-18 07:33N 49°38' W 006°35'1717.0
2016-Jul-18 06:34N 49°35' W 007°01'1917.3
2016-Jul-18 05:29N 49°30' W 007°28'1617.3
2016-Jul-18 04:33N 49°26' W 007°53'1817.9
2016-Jul-18 03:33N 49°21' W 008°19'1818.1
2016-Jul-18 02:33N 49°17' W 008°46'1818.1
2016-Jul-18 01:33N 49°13' W 009°13'1818.0
2016-Jul-18 00:33N 49°08' W 009°40'1817.8
2016-Jul-17 23:33N 49°04' W 010°06'1817.5
2016-Jul-17 22:34N 48°60' W 010°32'3817.7
2016-Jul-17 20:26N 48°50' W 011°27'8617.6
2016-Jul-17 15:34N 48°29' W 013°33'1917.7
2016-Jul-17 14:29N 48°24' W 014°01'  

Dump ship's entire track history